FDX733 KMCO-KIND
Flight info
| Callsign | FDX733 |
|---|---|
| Flight time | 1h 58m |
| Altitude | 38000 |
| Route | RDSOX1 JFRYS BRUTS Q118 THRSR Q79 SWAPP HAGAL GIIBS4 |
| Aircraft | B77L/H-SDE1E2E3FGHIJ2J3J4J5M1RWXY/LB1D1 |
Departure
| Time | 2026-04-21 18:41 |
|---|---|
| Airport | Orlando International Airport (KMCO) |
Arrival
| Time | 2026-04-21 20:39 |
|---|---|
| Airport | Indianapolis International Airport (KIND) |
| Time | Latitude | Longitude | Altitude | Speed | Heading |
|---|---|---|---|---|---|
| 2026-04-21 18:36 | 28.41403 | -81.33474 | 104 ft | 3 kts | 91° |
| 2026-04-21 18:36 | 28.41402 | -81.33433 | 105 ft | 12 kts | 91° |
| 2026-04-21 18:36 | 28.41403 | -81.33325 | 108 ft | 14 kts | 88° |
| 2026-04-21 18:36 | 28.41405 | -81.33216 | 109 ft | 14 kts | 89° |
| 2026-04-21 18:37 | 28.41406 | -81.33108 | 110 ft | 14 kts | 89° |
| 2026-04-21 18:37 | 28.41446 | -81.33012 | 112 ft | 14 kts | 48° |
| 2026-04-21 18:37 | 28.41514 | -81.32932 | 109 ft | 14 kts | 50° |
| 2026-04-21 18:37 | 28.41538 | -81.32826 | 110 ft | 14 kts | 89° |
| 2026-04-21 18:38 | 28.41538 | -81.32765 | 110 ft | 0 kts | 90° |
| 2026-04-21 18:38 | 28.41538 | -81.32764 | 110 ft | 0 kts | 90° |
| 2026-04-21 18:38 | 28.41538 | -81.32765 | 110 ft | 1 kts | 90° |
| 2026-04-21 18:38 | 28.41538 | -81.32781 | 110 ft | 1 kts | 90° |
| 2026-04-21 18:39 | 28.41538 | -81.32782 | 110 ft | 0 kts | 91° |
| 2026-04-21 18:40 | 28.41538 | -81.32775 | 113 ft | 6 kts | 91° |
| 2026-04-21 18:40 | 28.41541 | -81.32682 | 111 ft | 9 kts | 73° |
| 2026-04-21 18:40 | 28.41608 | -81.32664 | 112 ft | 18 kts | 356° |
| 2026-04-21 18:40 | 28.41984 | -81.32660 | 110 ft | 107 kts | 1° |
| 2026-04-21 18:41 | 28.43089 | -81.32695 | 313 ft | 194 kts | 360° |
| 2026-04-21 18:41 | 28.44407 | -81.32841 | 1791 ft | 186 kts | 1° |
| 2026-04-21 18:41 | 28.45765 | -81.32874 | 2833 ft | 207 kts | 7° |
| 2026-04-21 18:41 | 28.47300 | -81.32831 | 3367 ft | 232 kts | 6° |
| 2026-04-21 18:42 | 28.48955 | -81.32797 | 4299 ft | 241 kts | 6° |
| 2026-04-21 18:42 | 28.50631 | -81.32778 | 5416 ft | 242 kts | 5° |
| 2026-04-21 18:42 | 28.52312 | -81.32775 | 6357 ft | 240 kts | 4° |
| 2026-04-21 18:42 | 28.54007 | -81.32786 | 6922 ft | 246 kts | 2° |
| 2026-04-21 18:43 | 28.55714 | -81.33178 | 6983 ft | 259 kts | 340° |
| 2026-04-21 18:43 | 28.57351 | -81.34055 | 6994 ft | 260 kts | 338° |
| 2026-04-21 18:43 | 28.58830 | -81.35213 | 6980 ft | 262 kts | 314° |
| 2026-04-21 18:43 | 28.59672 | -81.37101 | 7021 ft | 282 kts | 284° |
| 2026-04-21 18:44 | 28.59776 | -81.39382 | 7015 ft | 295 kts | 269° |
| 2026-04-21 18:44 | 28.59710 | -81.41755 | 6996 ft | 302 kts | 270° |
| 2026-04-21 18:44 | 28.59678 | -81.44122 | 6984 ft | 296 kts | 271° |
| 2026-04-21 18:44 | 28.59656 | -81.46422 | 6980 ft | 293 kts | 271° |
| 2026-04-21 18:45 | 28.59629 | -81.48739 | 7079 ft | 291 kts | 268° |
| 2026-04-21 18:45 | 28.59148 | -81.50982 | 7716 ft | 293 kts | 246° |
| 2026-04-21 18:45 | 28.58296 | -81.53043 | 8599 ft | 299 kts | 245° |
| 2026-04-21 18:45 | 28.57413 | -81.55197 | 9739 ft | 297 kts | 246° |
| 2026-04-21 18:46 | 28.56550 | -81.57325 | 10844 ft | 298 kts | 247° |
| 2026-04-21 18:46 | 28.55657 | -81.59538 | 11371 ft | 321 kts | 248° |
| 2026-04-21 18:46 | 28.54687 | -81.61954 | 11597 ft | 352 kts | 248° |
| 2026-04-21 18:46 | 28.53632 | -81.64589 | 11922 ft | 377 kts | 248° |
| 2026-04-21 18:47 | 28.52528 | -81.67338 | 12700 ft | 388 kts | 248° |
| 2026-04-21 18:47 | 28.51398 | -81.70156 | 13646 ft | 393 kts | 248° |
| 2026-04-21 18:47 | 28.50257 | -81.72996 | 14602 ft | 396 kts | 248° |
| 2026-04-21 18:47 | 28.49106 | -81.75852 | 15541 ft | 399 kts | 248° |
| 2026-04-21 18:48 | 28.47947 | -81.78722 | 16502 ft | 401 kts | 248° |
| 2026-04-21 18:48 | 28.46782 | -81.81620 | 17397 ft | 405 kts | 248° |
| 2026-04-21 18:48 | 28.45601 | -81.84551 | 18238 ft | 410 kts | 248° |
| 2026-04-21 18:48 | 28.44412 | -81.87504 | 19050 ft | 413 kts | 248° |
| 2026-04-21 18:49 | 28.43224 | -81.90479 | 19797 ft | 413 kts | 250° |
| 2026-04-21 18:49 | 28.42493 | -81.93624 | 20470 ft | 413 kts | 268° |
| 2026-04-21 18:49 | 28.42525 | -81.95763 | 20910 ft | 406 kts | 276° |
| 2026-04-21 18:49 | 28.42740 | -82.00094 | 21674 ft | 414 kts | 273° |
| 2026-04-21 18:50 | 28.42804 | -82.03371 | 22467 ft | 415 kts | 272° |
| 2026-04-21 18:50 | 28.42843 | -82.06649 | 23336 ft | 415 kts | 272° |
| 2026-04-21 18:50 | 28.42889 | -82.09929 | 24110 ft | 415 kts | 273° |
| 2026-04-21 18:50 | 28.42940 | -82.13224 | 24685 ft | 419 kts | 273° |
| 2026-04-21 18:51 | 28.42991 | -82.16546 | 25199 ft | 424 kts | 273° |
| 2026-04-21 18:51 | 28.43040 | -82.19912 | 25733 ft | 428 kts | 273° |
| 2026-04-21 18:51 | 28.43088 | -82.23304 | 26289 ft | 431 kts | 274° |
| 2026-04-21 18:51 | 28.43134 | -82.26679 | 26847 ft | 434 kts | 274° |
| 2026-04-21 18:52 | 28.43179 | -82.30124 | 27401 ft | 438 kts | 274° |
| 2026-04-21 18:52 | 28.43225 | -82.33598 | 27929 ft | 441 kts | 274° |
| 2026-04-21 18:52 | 28.43273 | -82.37103 | 28445 ft | 445 kts | 274° |
| 2026-04-21 18:52 | 28.43447 | -82.40601 | 28865 ft | 445 kts | 282° |
| 2026-04-21 18:53 | 28.44415 | -82.43942 | 29156 ft | 449 kts | 298° |
| 2026-04-21 18:53 | 28.46187 | -82.46869 | 29649 ft | 451 kts | 310° |
| 2026-04-21 18:53 | 28.48402 | -82.49396 | 30250 ft | 451 kts | 319° |
| 2026-04-21 18:53 | 28.51006 | -82.51370 | 30823 ft | 450 kts | 333° |
| 2026-04-21 18:54 | 28.53895 | -82.52738 | 31234 ft | 451 kts | 336° |
| 2026-04-21 18:54 | 28.56830 | -82.54027 | 31673 ft | 452 kts | 336° |
| 2026-04-21 18:54 | 28.59752 | -82.55300 | 32270 ft | 448 kts | 336° |
| 2026-04-21 18:54 | 28.62648 | -82.56579 | 32874 ft | 444 kts | 336° |
| 2026-04-21 18:55 | 28.64548 | -82.57431 | 33255 ft | 443 kts | 335° |
| 2026-04-21 18:55 | 28.68373 | -82.59177 | 33938 ft | 440 kts | 335° |
| 2026-04-21 18:55 | 28.71205 | -82.60486 | 34397 ft | 439 kts | 335° |
| 2026-04-21 18:55 | 28.74035 | -82.61804 | 34763 ft | 439 kts | 334° |
| 2026-04-21 18:56 | 28.76864 | -82.63124 | 35070 ft | 441 kts | 334° |
| 2026-04-21 18:56 | 28.79705 | -82.64453 | 35384 ft | 441 kts | 334° |
| 2026-04-21 18:56 | 28.82509 | -82.65765 | 35670 ft | 442 kts | 334° |
| 2026-04-21 18:56 | 28.85357 | -82.67097 | 35969 ft | 443 kts | 333° |
| 2026-04-21 18:57 | 28.88211 | -82.68432 | 36205 ft | 445 kts | 333° |
| 2026-04-21 18:57 | 28.93990 | -82.71139 | 36521 ft | 448 kts | 333° |
| 2026-04-21 18:57 | 28.96863 | -82.72482 | 36951 ft | 445 kts | 333° |
| 2026-04-21 18:58 | 28.99729 | -82.73823 | 37330 ft | 444 kts | 332° |
| 2026-04-21 18:58 | 29.02583 | -82.75160 | 37652 ft | 443 kts | 332° |
| 2026-04-21 18:58 | 29.05440 | -82.76500 | 37948 ft | 444 kts | 332° |
| 2026-04-21 18:58 | 29.08297 | -82.77842 | 38186 ft | 445 kts | 332° |
| 2026-04-21 18:59 | 29.11177 | -82.79197 | 38227 ft | 450 kts | 332° |
| 2026-04-21 18:59 | 29.16979 | -82.81928 | 38270 ft | 450 kts | 332° |
| 2026-04-21 19:00 | 29.22736 | -82.84634 | 38276 ft | 445 kts | 332° |
| 2026-04-21 19:00 | 29.28449 | -82.87327 | 38282 ft | 442 kts | 332° |
| 2026-04-21 19:01 | 29.34134 | -82.90013 | 38289 ft | 441 kts | 332° |
| 2026-04-21 19:01 | 29.39814 | -82.92701 | 38291 ft | 442 kts | 332° |
| 2026-04-21 19:02 | 29.45505 | -82.95400 | 38290 ft | 443 kts | 332° |
| 2026-04-21 19:02 | 29.51204 | -82.98099 | 38286 ft | 444 kts | 332° |
| 2026-04-21 19:03 | 29.56924 | -83.00803 | 38278 ft | 445 kts | 332° |
| 2026-04-21 19:03 | 29.62648 | -83.03511 | 38277 ft | 445 kts | 332° |
| 2026-04-21 19:04 | 29.68384 | -83.06235 | 38279 ft | 446 kts | 332° |
| 2026-04-21 19:04 | 29.74130 | -83.08970 | 38277 ft | 447 kts | 332° |
| 2026-04-21 19:05 | 29.79840 | -83.11691 | 38281 ft | 447 kts | 332° |
| 2026-04-21 19:05 | 29.85585 | -83.14433 | 38288 ft | 447 kts | 332° |
| 2026-04-21 19:06 | 29.91328 | -83.17178 | 38283 ft | 446 kts | 332° |
| 2026-04-21 19:06 | 29.97064 | -83.19923 | 38288 ft | 447 kts | 332° |
| 2026-04-21 19:07 | 30.02804 | -83.22674 | 38307 ft | 446 kts | 332° |
| 2026-04-21 19:07 | 30.08539 | -83.25427 | 38299 ft | 446 kts | 332° |
| 2026-04-21 19:08 | 30.14273 | -83.28185 | 38298 ft | 446 kts | 332° |
| 2026-04-21 19:08 | 30.20001 | -83.30945 | 38298 ft | 446 kts | 332° |
| 2026-04-21 19:09 | 30.25728 | -83.33699 | 38315 ft | 446 kts | 332° |
| 2026-04-21 19:09 | 30.31462 | -83.36455 | 38309 ft | 446 kts | 332° |
| 2026-04-21 19:10 | 30.37188 | -83.39218 | 38305 ft | 446 kts | 332° |
| 2026-04-21 19:10 | 30.40335 | -83.40740 | 38308 ft | 445 kts | 332° |
| 2026-04-21 19:11 | 30.46010 | -83.43491 | 38311 ft | 445 kts | 332° |
| 2026-04-21 19:11 | 30.51760 | -83.46282 | 38307 ft | 445 kts | 332° |
| 2026-04-21 19:12 | 30.56500 | -83.48585 | 38311 ft | 445 kts | 332° |
| 2026-04-21 19:12 | 30.63139 | -83.51815 | 38318 ft | 445 kts | 332° |
| 2026-04-21 19:13 | 30.68882 | -83.54613 | 38300 ft | 445 kts | 332° |
| 2026-04-21 19:13 | 30.74554 | -83.57380 | 38311 ft | 445 kts | 332° |
| 2026-04-21 19:14 | 30.80264 | -83.60169 | 38343 ft | 445 kts | 332° |
| 2026-04-21 19:14 | 30.85994 | -83.62972 | 38326 ft | 446 kts | 332° |
| 2026-04-21 19:15 | 30.91722 | -83.65777 | 38313 ft | 447 kts | 332° |
| 2026-04-21 19:15 | 30.97454 | -83.68587 | 38311 ft | 446 kts | 332° |
| 2026-04-21 19:16 | 31.03178 | -83.71398 | 38313 ft | 446 kts | 332° |
| 2026-04-21 19:16 | 31.08893 | -83.74208 | 38314 ft | 446 kts | 332° |
| 2026-04-21 19:17 | 31.17463 | -83.78429 | 38316 ft | 445 kts | 332° |
| 2026-04-21 19:17 | 31.23172 | -83.81247 | 38315 ft | 445 kts | 332° |
| 2026-04-21 19:18 | 31.28876 | -83.84066 | 38320 ft | 445 kts | 332° |
| 2026-04-21 19:18 | 31.34534 | -83.86866 | 38327 ft | 444 kts | 332° |
| 2026-04-21 19:19 | 31.39299 | -83.89229 | 38356 ft | 444 kts | 332° |
| 2026-04-21 19:19 | 31.44991 | -83.92058 | 38323 ft | 444 kts | 332° |
| 2026-04-21 19:20 | 31.50698 | -83.94842 | 38328 ft | 446 kts | 335° |
| 2026-04-21 19:20 | 31.56735 | -83.96765 | 38335 ft | 453 kts | 343° |
| 2026-04-21 19:21 | 31.62945 | -83.98095 | 38327 ft | 454 kts | 344° |
| 2026-04-21 19:21 | 31.69159 | -83.99426 | 38339 ft | 454 kts | 343° |
| 2026-04-21 19:22 | 31.75362 | -84.00788 | 38348 ft | 453 kts | 343° |
| 2026-04-21 19:22 | 31.81526 | -84.02160 | 38330 ft | 453 kts | 343° |
| 2026-04-21 19:23 | 31.87721 | -84.03545 | 38333 ft | 453 kts | 343° |
| 2026-04-21 19:23 | 31.93918 | -84.04931 | 38357 ft | 453 kts | 343° |
| 2026-04-21 19:24 | 32.00118 | -84.06319 | 38307 ft | 453 kts | 343° |
| 2026-04-21 19:24 | 32.06309 | -84.07707 | 38295 ft | 452 kts | 343° |
| 2026-04-21 19:25 | 32.12487 | -84.09093 | 38295 ft | 452 kts | 343° |
| 2026-04-21 19:25 | 32.18670 | -84.10483 | 38295 ft | 451 kts | 343° |
| 2026-04-21 19:26 | 32.24840 | -84.11872 | 38305 ft | 451 kts | 343° |
| 2026-04-21 19:26 | 32.31010 | -84.13263 | 38303 ft | 451 kts | 343° |
| 2026-04-21 19:27 | 32.37183 | -84.14657 | 38322 ft | 451 kts | 343° |
| 2026-04-21 19:27 | 32.43344 | -84.16049 | 38326 ft | 450 kts | 343° |
| 2026-04-21 19:28 | 32.49497 | -84.17442 | 38345 ft | 450 kts | 343° |
| 2026-04-21 19:28 | 32.55656 | -84.18838 | 38325 ft | 450 kts | 343° |
| 2026-04-21 19:29 | 32.61812 | -84.20236 | 38326 ft | 450 kts | 343° |
| 2026-04-21 19:29 | 32.67965 | -84.21634 | 38333 ft | 450 kts | 343° |
| 2026-04-21 19:30 | 32.74115 | -84.23034 | 38345 ft | 450 kts | 343° |
| 2026-04-21 19:30 | 32.80268 | -84.24437 | 38355 ft | 450 kts | 343° |
| 2026-04-21 19:31 | 32.86411 | -84.25840 | 38361 ft | 450 kts | 343° |
| 2026-04-21 19:31 | 32.92527 | -84.27238 | 38358 ft | 450 kts | 343° |
| 2026-04-21 19:32 | 32.98673 | -84.28645 | 38361 ft | 449 kts | 343° |
| 2026-04-21 19:32 | 33.04816 | -84.30053 | 38352 ft | 450 kts | 343° |
| 2026-04-21 19:33 | 33.10968 | -84.31466 | 38343 ft | 450 kts | 343° |
| 2026-04-21 19:33 | 33.17124 | -84.32882 | 38363 ft | 450 kts | 343° |
| 2026-04-21 19:34 | 33.23265 | -84.34297 | 38360 ft | 450 kts | 343° |
| 2026-04-21 19:34 | 33.29421 | -84.35717 | 38377 ft | 450 kts | 343° |
| 2026-04-21 19:35 | 33.38648 | -84.37851 | 38347 ft | 450 kts | 343° |
| 2026-04-21 19:36 | 33.44750 | -84.39265 | 38338 ft | 450 kts | 343° |
| 2026-04-21 19:36 | 33.50910 | -84.40696 | 38351 ft | 450 kts | 343° |
| 2026-04-21 19:37 | 33.57055 | -84.42129 | 38373 ft | 450 kts | 343° |
| 2026-04-21 19:37 | 33.63204 | -84.43558 | 38349 ft | 450 kts | 343° |
| 2026-04-21 19:38 | 33.69383 | -84.44919 | 38350 ft | 451 kts | 344° |
| 2026-04-21 19:38 | 33.74513 | -84.46023 | 38345 ft | 451 kts | 344° |
| 2026-04-21 19:39 | 33.81723 | -84.47594 | 38346 ft | 450 kts | 343° |
| 2026-04-21 19:39 | 33.87880 | -84.48949 | 38336 ft | 450 kts | 343° |
| 2026-04-21 19:40 | 33.94049 | -84.50311 | 38334 ft | 450 kts | 343° |
| 2026-04-21 19:40 | 34.00205 | -84.51672 | 38365 ft | 449 kts | 343° |
| 2026-04-21 19:41 | 34.06344 | -84.53083 | 38360 ft | 448 kts | 342° |
| 2026-04-21 19:41 | 34.12424 | -84.54668 | 38357 ft | 447 kts | 342° |
| 2026-04-21 19:42 | 34.18498 | -84.56276 | 38345 ft | 447 kts | 342° |
| 2026-04-21 19:42 | 34.24567 | -84.57866 | 38342 ft | 446 kts | 342° |
| 2026-04-21 19:43 | 34.30599 | -84.59438 | 38340 ft | 446 kts | 342° |
| 2026-04-21 19:43 | 34.36666 | -84.61021 | 38364 ft | 446 kts | 342° |
| 2026-04-21 19:44 | 34.42726 | -84.62605 | 38343 ft | 446 kts | 342° |
| 2026-04-21 19:44 | 34.48787 | -84.64195 | 38317 ft | 445 kts | 342° |
| 2026-04-21 19:45 | 34.54844 | -84.65787 | 38307 ft | 445 kts | 342° |
| 2026-04-21 19:45 | 34.60899 | -84.67351 | 38311 ft | 445 kts | 342° |
| 2026-04-21 19:46 | 34.66977 | -84.68840 | 38319 ft | 446 kts | 343° |
| 2026-04-21 19:46 | 34.73064 | -84.70332 | 38315 ft | 447 kts | 343° |
| 2026-04-21 19:47 | 34.79158 | -84.71841 | 38317 ft | 447 kts | 343° |
| 2026-04-21 19:47 | 34.85263 | -84.73362 | 38310 ft | 448 kts | 343° |
| 2026-04-21 19:48 | 34.91367 | -84.74886 | 38321 ft | 448 kts | 343° |
| 2026-04-21 19:48 | 34.97475 | -84.76412 | 38310 ft | 448 kts | 343° |
| 2026-04-21 19:49 | 35.03572 | -84.77938 | 38297 ft | 447 kts | 343° |
| 2026-04-21 19:49 | 35.09661 | -84.79465 | 38305 ft | 446 kts | 343° |
| 2026-04-21 19:50 | 35.14717 | -84.80734 | 38317 ft | 446 kts | 343° |
| 2026-04-21 19:50 | 35.21830 | -84.82523 | 38282 ft | 446 kts | 343° |
| 2026-04-21 19:51 | 35.27918 | -84.84057 | 38280 ft | 447 kts | 343° |
| 2026-04-21 19:51 | 35.34004 | -84.85594 | 38280 ft | 447 kts | 343° |
| 2026-04-21 19:52 | 35.40093 | -84.87134 | 38303 ft | 447 kts | 343° |
| 2026-04-21 19:52 | 35.46185 | -84.88678 | 38287 ft | 447 kts | 343° |
| 2026-04-21 19:53 | 35.52288 | -84.90231 | 38288 ft | 448 kts | 343° |
| 2026-04-21 19:53 | 35.58367 | -84.91774 | 38290 ft | 443 kts | 343° |
| 2026-04-21 19:54 | 35.64394 | -84.93294 | 38294 ft | 443 kts | 343° |
| 2026-04-21 19:54 | 35.70494 | -84.94834 | 38304 ft | 452 kts | 343° |
| 2026-04-21 19:55 | 35.76623 | -84.96386 | 38297 ft | 453 kts | 343° |
| 2026-04-21 19:55 | 35.82806 | -84.97956 | 38288 ft | 453 kts | 343° |
| 2026-04-21 19:56 | 35.88977 | -84.99527 | 38316 ft | 453 kts | 343° |
| 2026-04-21 19:56 | 35.95151 | -85.01102 | 38320 ft | 452 kts | 343° |
| 2026-04-21 19:57 | 36.01308 | -85.02676 | 38322 ft | 451 kts | 343° |
| 2026-04-21 19:57 | 36.07460 | -85.04251 | 38316 ft | 451 kts | 343° |
| 2026-04-21 19:58 | 36.13561 | -85.05815 | 38309 ft | 450 kts | 343° |
| 2026-04-21 19:58 | 36.19694 | -85.07391 | 38310 ft | 450 kts | 343° |
| 2026-04-21 19:59 | 36.25834 | -85.08972 | 38290 ft | 450 kts | 343° |
| 2026-04-21 19:59 | 36.31970 | -85.10554 | 38287 ft | 450 kts | 343° |
| 2026-04-21 20:00 | 36.38106 | -85.12139 | 38286 ft | 450 kts | 343° |
| 2026-04-21 20:00 | 36.44245 | -85.13729 | 38290 ft | 451 kts | 343° |
| 2026-04-21 20:01 | 36.50387 | -85.15323 | 38272 ft | 451 kts | 343° |
| 2026-04-21 20:01 | 36.56524 | -85.16921 | 38281 ft | 451 kts | 343° |
| 2026-04-21 20:02 | 36.61628 | -85.18246 | 38265 ft | 451 kts | 343° |
| 2026-04-21 20:02 | 36.64936 | -85.19092 | 38271 ft | 451 kts | 344° |
| 2026-04-21 20:03 | 36.71099 | -85.20642 | 38275 ft | 451 kts | 344° |
| 2026-04-21 20:03 | 36.77256 | -85.22197 | 38265 ft | 451 kts | 344° |
| 2026-04-21 20:04 | 36.83408 | -85.23762 | 38270 ft | 451 kts | 344° |
| 2026-04-21 20:04 | 36.89509 | -85.25320 | 38265 ft | 450 kts | 344° |
| 2026-04-21 20:05 | 36.95655 | -85.26894 | 38270 ft | 450 kts | 343° |
| 2026-04-21 20:05 | 37.01789 | -85.28466 | 38254 ft | 450 kts | 343° |
| 2026-04-21 20:06 | 37.07921 | -85.30041 | 38253 ft | 450 kts | 343° |
| 2026-04-21 20:06 | 37.14062 | -85.31620 | 38243 ft | 450 kts | 343° |
| 2026-04-21 20:07 | 37.20193 | -85.33200 | 38249 ft | 449 kts | 343° |
| 2026-04-21 20:07 | 37.26315 | -85.34779 | 38239 ft | 449 kts | 343° |
| 2026-04-21 20:08 | 37.32437 | -85.36361 | 38244 ft | 449 kts | 343° |
| 2026-04-21 20:08 | 37.38550 | -85.37944 | 38233 ft | 448 kts | 343° |
| 2026-04-21 20:09 | 37.44669 | -85.39532 | 38235 ft | 449 kts | 343° |
| 2026-04-21 20:09 | 37.50787 | -85.41121 | 38217 ft | 448 kts | 343° |
| 2026-04-21 20:10 | 37.56894 | -85.42711 | 38196 ft | 448 kts | 343° |
| 2026-04-21 20:10 | 37.62995 | -85.44301 | 38208 ft | 448 kts | 343° |
| 2026-04-21 20:11 | 37.69102 | -85.45896 | 38192 ft | 448 kts | 343° |
| 2026-04-21 20:11 | 37.75219 | -85.47497 | 38188 ft | 449 kts | 343° |
| 2026-04-21 20:12 | 37.81337 | -85.49100 | 38186 ft | 449 kts | 343° |
| 2026-04-21 20:12 | 37.87454 | -85.50707 | 38221 ft | 449 kts | 343° |
| 2026-04-21 20:13 | 37.93580 | -85.52319 | 38197 ft | 449 kts | 343° |
| 2026-04-21 20:13 | 37.99668 | -85.53924 | 38184 ft | 450 kts | 343° |
| 2026-04-21 20:14 | 38.05799 | -85.55545 | 38179 ft | 450 kts | 343° |
| 2026-04-21 20:14 | 38.11922 | -85.57169 | 38197 ft | 450 kts | 343° |
| 2026-04-21 20:15 | 38.18019 | -85.58782 | 38006 ft | 445 kts | 343° |
| 2026-04-21 20:15 | 38.21091 | -85.59449 | 37345 ft | 448 kts | 347° |
| 2026-04-21 20:15 | 38.24184 | -85.59902 | 36679 ft | 448 kts | 349° |
| 2026-04-21 20:15 | 38.27280 | -85.60292 | 35961 ft | 448 kts | 349° |
| 2026-04-21 20:16 | 38.30390 | -85.60696 | 35173 ft | 449 kts | 348° |
| 2026-04-21 20:16 | 38.33509 | -85.61138 | 34347 ft | 451 kts | 348° |
| 2026-04-21 20:16 | 38.36639 | -85.61601 | 33410 ft | 454 kts | 348° |
| 2026-04-21 20:16 | 38.39787 | -85.62075 | 32474 ft | 457 kts | 348° |
| 2026-04-21 20:17 | 38.41878 | -85.62393 | 31856 ft | 458 kts | 348° |
| 2026-04-21 20:17 | 38.42264 | -85.62452 | 31737 ft | 458 kts | 348° |
| 2026-04-21 20:17 | 38.45440 | -85.62937 | 30806 ft | 460 kts | 349° |
| 2026-04-21 20:17 | 38.48606 | -85.63421 | 30139 ft | 456 kts | 349° |
| 2026-04-21 20:18 | 38.50694 | -85.63740 | 29629 ft | 454 kts | 349° |
| 2026-04-21 20:18 | 38.54860 | -85.64376 | 28697 ft | 448 kts | 349° |
| 2026-04-21 20:18 | 38.57934 | -85.64843 | 28082 ft | 443 kts | 349° |
| 2026-04-21 20:18 | 38.60981 | -85.65293 | 27428 ft | 439 kts | 349° |
| 2026-04-21 20:19 | 38.64011 | -85.65731 | 26789 ft | 435 kts | 348° |
| 2026-04-21 20:19 | 38.67005 | -85.66163 | 26184 ft | 431 kts | 348° |
| 2026-04-21 20:19 | 38.69979 | -85.66595 | 25591 ft | 428 kts | 348° |
| 2026-04-21 20:19 | 38.72887 | -85.67021 | 25004 ft | 425 kts | 348° |
| 2026-04-21 20:20 | 38.75812 | -85.67451 | 24416 ft | 422 kts | 348° |
| 2026-04-21 20:20 | 38.78721 | -85.67881 | 23821 ft | 420 kts | 348° |
| 2026-04-21 20:20 | 38.81615 | -85.68310 | 23157 ft | 417 kts | 348° |
| 2026-04-21 20:20 | 38.84490 | -85.68736 | 22523 ft | 414 kts | 348° |
| 2026-04-21 20:21 | 38.87341 | -85.69159 | 21922 ft | 410 kts | 348° |
| 2026-04-21 20:21 | 38.90164 | -85.69579 | 21346 ft | 406 kts | 348° |
| 2026-04-21 20:21 | 38.92960 | -85.69997 | 20788 ft | 403 kts | 348° |
| 2026-04-21 20:21 | 38.95732 | -85.70411 | 20239 ft | 399 kts | 348° |
| 2026-04-21 20:22 | 38.98484 | -85.70820 | 19695 ft | 397 kts | 348° |
| 2026-04-21 20:22 | 39.03939 | -85.71662 | 18604 ft | 392 kts | 347° |
| 2026-04-21 20:22 | 39.06632 | -85.72143 | 17969 ft | 392 kts | 347° |
| 2026-04-21 20:23 | 39.09328 | -85.72630 | 17359 ft | 390 kts | 347° |
| 2026-04-21 20:23 | 39.12008 | -85.73105 | 16773 ft | 387 kts | 347° |
| 2026-04-21 20:23 | 39.14661 | -85.73577 | 16205 ft | 380 kts | 346° |
| 2026-04-21 20:23 | 39.17137 | -85.74489 | 15657 ft | 366 kts | 332° |
| 2026-04-21 20:24 | 39.19433 | -85.75925 | 15167 ft | 368 kts | 330° |
| 2026-04-21 20:24 | 39.21757 | -85.77352 | 14642 ft | 371 kts | 331° |
| 2026-04-21 20:24 | 39.24105 | -85.78727 | 14111 ft | 369 kts | 332° |
| 2026-04-21 20:24 | 39.26443 | -85.80069 | 13540 ft | 366 kts | 332° |
| 2026-04-21 20:25 | 39.28759 | -85.81399 | 12985 ft | 362 kts | 332° |
| 2026-04-21 20:25 | 39.31053 | -85.82715 | 12455 ft | 359 kts | 332° |
| 2026-04-21 20:25 | 39.33290 | -85.84070 | 11963 ft | 348 kts | 326° |
| 2026-04-21 20:25 | 39.35217 | -85.85899 | 11748 ft | 340 kts | 316° |
| 2026-04-21 20:26 | 39.36976 | -85.87828 | 11443 ft | 332 kts | 316° |
| 2026-04-21 20:26 | 39.38747 | -85.89740 | 11138 ft | 323 kts | 316° |
| 2026-04-21 20:26 | 39.40461 | -85.91563 | 10871 ft | 315 kts | 316° |
| 2026-04-21 20:26 | 39.42093 | -85.93276 | 10583 ft | 293 kts | 316° |
| 2026-04-21 20:27 | 39.43625 | -85.94872 | 10373 ft | 276 kts | 316° |
| 2026-04-21 20:27 | 39.45100 | -85.96413 | 10158 ft | 269 kts | 316° |
| 2026-04-21 20:27 | 39.46540 | -85.97916 | 9868 ft | 264 kts | 316° |
| 2026-04-21 20:27 | 39.47989 | -85.99351 | 9530 ft | 260 kts | 317° |
| 2026-04-21 20:28 | 39.49446 | -86.00768 | 9219 ft | 257 kts | 317° |
| 2026-04-21 20:28 | 39.50858 | -86.02146 | 8913 ft | 258 kts | 317° |
| 2026-04-21 20:28 | 39.52287 | -86.03547 | 8626 ft | 258 kts | 316° |
| 2026-04-21 20:28 | 39.53730 | -86.04964 | 8287 ft | 255 kts | 316° |
| 2026-04-21 20:29 | 39.55120 | -86.06327 | 7963 ft | 253 kts | 316° |
| 2026-04-21 20:29 | 39.56526 | -86.07710 | 7679 ft | 254 kts | 316° |
| 2026-04-21 20:29 | 39.57928 | -86.09087 | 7365 ft | 251 kts | 315° |
| 2026-04-21 20:29 | 39.59313 | -86.10447 | 7059 ft | 248 kts | 314° |
| 2026-04-21 20:30 | 39.60578 | -86.11911 | 6890 ft | 242 kts | 307° |
| 2026-04-21 20:30 | 39.61763 | -86.13492 | 6690 ft | 246 kts | 307° |
| 2026-04-21 20:30 | 39.62948 | -86.15070 | 6537 ft | 242 kts | 307° |
| 2026-04-21 20:30 | 39.64109 | -86.16596 | 6336 ft | 233 kts | 307° |
| 2026-04-21 20:31 | 39.65279 | -86.17981 | 6152 ft | 228 kts | 321° |
| 2026-04-21 20:31 | 39.66847 | -86.18497 | 6086 ft | 244 kts | 354° |
| 2026-04-21 20:31 | 39.68538 | -86.17929 | 6032 ft | 260 kts | 24° |
| 2026-04-21 20:31 | 39.69947 | -86.16428 | 5916 ft | 264 kts | 43° |
| 2026-04-21 20:32 | 39.71244 | -86.14711 | 5810 ft | 267 kts | 43° |
| 2026-04-21 20:32 | 39.72555 | -86.13000 | 5687 ft | 267 kts | 43° |
| 2026-04-21 20:32 | 39.73860 | -86.11309 | 5597 ft | 262 kts | 43° |
| 2026-04-21 20:32 | 39.75159 | -86.09650 | 5490 ft | 263 kts | 41° |
| 2026-04-21 20:33 | 39.76542 | -86.08103 | 5272 ft | 259 kts | 26° |
| 2026-04-21 20:33 | 39.78206 | -86.07426 | 5015 ft | 246 kts | 353° |
| 2026-04-21 20:33 | 39.79787 | -86.07892 | 4826 ft | 227 kts | 324° |
| 2026-04-21 20:33 | 39.81090 | -86.08997 | 4560 ft | 222 kts | 316° |
| 2026-04-21 20:34 | 39.82314 | -86.10180 | 4267 ft | 216 kts | 315° |
| 2026-04-21 20:34 | 39.83510 | -86.11350 | 4052 ft | 214 kts | 315° |
| 2026-04-21 20:34 | 39.84687 | -86.12557 | 3742 ft | 212 kts | 307° |
| 2026-04-21 20:34 | 39.85363 | -86.14131 | 3407 ft | 193 kts | 273° |
| 2026-04-21 20:35 | 39.85170 | -86.15735 | 3106 ft | 179 kts | 238° |
| 2026-04-21 20:35 | 39.84273 | -86.16718 | 3016 ft | 165 kts | 210° |
| 2026-04-21 20:35 | 39.83221 | -86.17272 | 3006 ft | 165 kts | 205° |
| 2026-04-21 20:35 | 39.82167 | -86.17807 | 2969 ft | 160 kts | 206° |
| 2026-04-21 20:36 | 39.81148 | -86.18301 | 2987 ft | 152 kts | 206° |
| 2026-04-21 20:36 | 39.80146 | -86.18754 | 2979 ft | 151 kts | 205° |
| 2026-04-21 20:36 | 39.79165 | -86.19242 | 2896 ft | 152 kts | 214° |
| 2026-04-21 20:36 | 39.78372 | -86.20065 | 2745 ft | 141 kts | 223° |
| 2026-04-21 20:37 | 39.77634 | -86.20824 | 2684 ft | 129 kts | 222° |
| 2026-04-21 20:37 | 39.76990 | -86.21572 | 2530 ft | 126 kts | 224° |
| 2026-04-21 20:37 | 39.76331 | -86.22388 | 2221 ft | 132 kts | 225° |
| 2026-04-21 20:37 | 39.75680 | -86.23215 | 2066 ft | 131 kts | 227° |
| 2026-04-21 20:38 | 39.75040 | -86.24036 | 1859 ft | 127 kts | 227° |
| 2026-04-21 20:38 | 39.74432 | -86.24811 | 1622 ft | 118 kts | 229° |
| 2026-04-21 20:38 | 39.73858 | -86.25556 | 1361 ft | 116 kts | 225° |
| 2026-04-21 20:38 | 39.73249 | -86.26335 | 1200 ft | 133 kts | 224° |
| 2026-04-21 20:39 | 39.72612 | -86.27144 | 981 ft | 127 kts | 225° |
| 2026-04-21 20:39 | 39.71994 | -86.27931 | 819 ft | 122 kts | 225° |
| 2026-04-21 20:39 | 39.71439 | -86.28643 | 789 ft | 93 kts | 225° |
| 2026-04-21 20:39 | 39.71140 | -86.29022 | 787 ft | 30 kts | 224° |
| 2026-04-21 20:40 | 39.70968 | -86.29240 | 788 ft | 37 kts | 225° |
| 2026-04-21 20:40 | 39.70844 | -86.29391 | 785 ft | 14 kts | 209° |
| 2026-04-21 20:40 | 39.70783 | -86.29367 | 786 ft | 1 kts | 134° |
| 2026-04-21 20:40 | 39.70761 | -86.29351 | 787 ft | 5 kts | 165° |
| 2026-04-21 20:41 | 39.70725 | -86.29363 | 786 ft | 5 kts | 206° |
| 2026-04-21 20:41 | 39.70694 | -86.29392 | 786 ft | 6 kts | 219° |
| 2026-04-21 20:41 | 39.70651 | -86.29439 | 786 ft | 12 kts | 217° |
| 2026-04-21 20:41 | 39.70570 | -86.29490 | 786 ft | 11 kts | 191° |
| 2026-04-21 20:42 | 39.70505 | -86.29438 | 786 ft | 12 kts | 125° |
| 2026-04-21 20:42 | 39.70521 | -86.29345 | 785 ft | 12 kts | 49° |
| 2026-04-21 20:42 | 39.70579 | -86.29270 | 786 ft | 12 kts | 44° |
| 2026-04-21 20:42 | 39.70641 | -86.29192 | 785 ft | 13 kts | 45° |
| 2026-04-21 20:43 | 39.70704 | -86.29111 | 785 ft | 13 kts | 45° |
| 2026-04-21 20:43 | 39.70771 | -86.29025 | 787 ft | 14 kts | 43° |
| 2026-04-21 20:43 | 39.70841 | -86.28935 | 785 ft | 14 kts | 45° |
| 2026-04-21 20:43 | 39.70914 | -86.28842 | 786 ft | 15 kts | 44° |
| 2026-04-21 20:44 | 39.70987 | -86.28751 | 786 ft | 14 kts | 44° |
| 2026-04-21 20:44 | 39.71058 | -86.28662 | 786 ft | 13 kts | 44° |
| 2026-04-21 20:44 | 39.71123 | -86.28578 | 786 ft | 13 kts | 46° |
| 2026-04-21 20:44 | 39.71186 | -86.28496 | 786 ft | 13 kts | 44° |
| 2026-04-21 20:45 | 39.71210 | -86.28464 | 786 ft | 4 kts | 44° |
| 2026-04-21 20:45 | 39.71219 | -86.28454 | 786 ft | 1 kts | 41° |
| 2026-04-21 20:45 | 39.71229 | -86.28437 | 786 ft | 3 kts | 65° |
| 2026-04-21 20:45 | 39.71222 | -86.28406 | 786 ft | 4 kts | 117° |
| 2026-04-21 20:46 | 39.71206 | -86.28380 | 786 ft | 2 kts | 134° |
| 2026-04-21 20:46 | 39.71203 | -86.28375 | 786 ft | 1 kts | 134° |
| 2026-04-21 20:46 | 39.71198 | -86.28369 | 786 ft | 0 kts | 134° |